Time,TemperatureF,DewpointF,PressureIn,WindDirection,WindDirectionDegrees,WindSpeedMPH,WindSpeedGustMPH,Humidity,HourlyPrecipIn,Conditions,Clouds,dailyrainin,SoftwareType,DateUTC
2013-08-23 00:06:00,69.4,68.0,29.80,North,1,0.0,0.0,95,0.00,,,0.00,weatherlink.com 1.10,2013-08-23 04:06:00,
2013-08-23 00:21:00,69.1,68.0,29.81,North,1,0.0,0.0,95,0.00,,,0.00,weatherlink.com 1.10,2013-08-23 04:21:00,
2013-08-23 00:37:00,68.7,67.0,29.80,North,1,0.0,0.0,95,0.00,,,0.00,weatherlink.com 1.10,2013-08-23 04:37:00,
2013-08-23 00:52:00,68.3,67.0,29.81,North,1,0.0,0.0,95,0.00,,,0.00,weatherlink.com 1.10,2013-08-23 04:52:00,
2013-08-23 01:07:00,68.0,67.0,29.82,North,1,0.0,0.0,95,0.00,,,0.00,weatherlink.com 1.10,2013-08-23 05:07:00,
2013-08-23 01:22:00,67.7,66.0,29.82,North,1,0.0,0.0,95,0.00,,,0.00,weatherlink.com 1.10,2013-08-23 05:22:00,
2013-08-23 01:37:00,67.4,66.0,29.81,North,1,0.0,0.0,95,0.00,,,0.00,weatherlink.com 1.10,2013-08-23 05:37:00,
2013-08-23 01:52:00,67.2,66.0,29.82,North,1,0.0,0.0,96,0.00,,,0.00,weatherlink.com 1.10,2013-08-23 05:52:00,
2013-08-23 02:07:00,67.1,66.0,29.82,North,1,0.0,0.0,96,0.00,,,0.00,weatherlink.com 1.10,2013-08-23 06:07:00,
2013-08-23 02:22:00,66.8,66.0,29.82,North,1,0.0,0.0,96,0.00,,,0.00,weatherlink.com 1.10,2013-08-23 06:22:00,
2013-08-23 02:37:00,66.5,65.0,29.82,NNW,347,0.0,3.0,95,0.00,,,0.00,weatherlink.com 1.10,2013-08-23 06:37:00,
2013-08-23 02:52:00,66.2,65.0,29.83,NNW,332,0.0,2.0,95,0.00,,,0.00,weatherlink.com 1.10,2013-08-23 06:52:00,
2013-08-23 03:07:00,66.0,64.0,29.83,NNW,333,0.0,2.0,94,0.00,,,0.00,weatherlink.com 1.10,2013-08-23 07:07:00,
2013-08-23 03:22:00,65.7,64.0,29.83,North,354,1.0,3.0,94,0.00,,,0.00,weatherlink.com 1.10,2013-08-23 07:22:00,
2013-08-23 03:37:00,65.5,64.0,29.83,NNW,344,0.0,1.0,93,0.00,,,0.00,weatherlink.com 1.10,2013-08-23 07:37:00,
2013-08-23 03:52:00,65.1,63.0,29.83,NNW,342,0.0,1.0,94,0.00,,,0.00,weatherlink.com 1.10,2013-08-23 07:52:00,
2013-08-23 04:07:00,64.7,63.0,29.83,NNW,342,0.0,2.0,94,0.00,,,0.00,weatherlink.com 1.10,2013-08-23 08:07:00,
2013-08-23 04:22:00,64.3,63.0,29.83,NW,325,0.0,0.0,95,0.00,,,0.00,weatherlink.com 1.10,2013-08-23 08:22:00,
2013-08-23 04:37:00,64.1,63.0,29.83,NW,323,0.0,4.0,95,0.00,,,0.00,weatherlink.com 1.10,2013-08-23 08:37:00,
2013-08-23 04:52:00,64.1,62.0,29.84,NW,316,0.0,3.0,94,0.00,,,0.00,weatherlink.com 1.10,2013-08-23 08:52:00,
2013-08-23 05:07:00,64.0,62.0,29.85,North,352,0.0,4.0,93,0.00,,,0.00,weatherlink.com 1.10,2013-08-23 09:07:00,
2013-08-23 05:22:00,63.6,62.0,29.85,North,350,0.0,2.0,93,0.00,,,0.00,weatherlink.com 1.10,2013-08-23 09:22:00,
2013-08-23 05:37:00,63.4,61.0,29.86,NNW,345,0.0,1.0,93,0.00,,,0.00,weatherlink.com 1.10,2013-08-23 09:37:00,
2013-08-23 05:52:00,63.2,61.0,29.86,North,352,0.0,0.0,93,0.00,,,0.00,weatherlink.com 1.10,2013-08-23 09:52:00,
2013-08-23 06:07:00,63.1,61.0,29.87,North,354,0.0,2.0,93,0.00,,,0.00,weatherlink.com 1.10,2013-08-23 10:07:00,
2013-08-23 06:22:00,62.9,61.0,29.88,North,358,0.0,0.0,93,0.00,,,0.00,weatherlink.com 1.10,2013-08-23 10:22:00,
2013-08-23 06:37:00,62.9,61.0,29.89,North,349,0.0,1.0,93,0.00,,,0.00,weatherlink.com 1.10,2013-08-23 10:37:00,
2013-08-23 06:52:00,62.8,61.0,29.89,NNW,330,0.0,1.0,93,0.00,,,0.00,weatherlink.com 1.10,2013-08-23 10:52:00,
2013-08-23 07:07:00,62.9,61.0,29.90,NNW,330,0.0,1.0,94,0.00,,,0.00,weatherlink.com 1.10,2013-08-23 11:07:00,
2013-08-23 07:22:00,63.4,62.0,29.91,North,352,0.0,2.0,94,0.00,,,0.00,weatherlink.com 1.10,2013-08-23 11:22:00,
2013-08-23 07:37:00,64.0,62.0,29.91,NW,325,0.0,1.0,93,0.00,,,0.00,weatherlink.com 1.10,2013-08-23 11:37:00,
2013-08-23 07:52:00,64.5,62.0,29.91,NNW,342,0.0,1.0,91,0.00,,,0.00,weatherlink.com 1.10,2013-08-23 11:52:00,
2013-08-23 08:07:00,64.8,62.0,29.92,North,349,0.0,1.0,91,0.00,,,0.00,weatherlink.com 1.10,2013-08-23 12:07:00,
2013-08-23 08:22:00,64.9,62.0,29.92,North,1,2.0,3.0,89,0.00,,,0.00,weatherlink.com 1.10,2013-08-23 12:22:00,
2013-08-23 08:38:00,65.0,61.0,29.92,NNW,338,0.0,2.0,88,0.00,,,0.00,weatherlink.com 1.10,2013-08-23 12:38:00,
2013-08-23 08:53:00,65.2,61.0,29.93,NNW,330,0.0,3.0,87,0.00,,,0.00,weatherlink.com 1.10,2013-08-23 12:53:00,
2013-08-23 09:08:00,66.6,61.0,29.93,NW,307,0.0,6.0,82,0.00,,,0.00,weatherlink.com 1.10,2013-08-23 13:08:00,
2013-08-23 09:23:00,67.1,60.0,29.93,NNW,329,0.0,10.0,78,0.00,,,0.00,weatherlink.com 1.10,2013-08-23 13:23:00,
2013-08-23 09:38:00,67.8,61.0,29.94,NW,311,0.0,5.0,78,0.00,,,0.00,weatherlink.com 1.10,2013-08-23 13:38:00,
2013-08-23 09:53:00,68.7,61.0,29.94,North,6,0.0,9.0,76,0.00,,,0.00,weatherlink.com 1.10,2013-08-23 13:53:00,
2013-08-23 10:08:00,69.9,59.0,29.95,NW,309,1.0,6.0,69,0.00,,,0.00,weatherlink.com 1.10,2013-08-23 14:08:00,
2013-08-23 10:23:00,71.2,58.0,29.95,West,264,1.0,8.0,64,0.00,,,0.00,weatherlink.com 1.10,2013-08-23 14:23:00,
2013-08-23 10:38:00,72.8,58.0,29.95,North,8,0.0,5.0,60,0.00,,,0.00,weatherlink.com 1.10,2013-08-23 14:38:00,
2013-08-23 10:53:00,73.3,57.0,29.96,NW,313,2.0,7.0,58,0.00,,,0.00,weatherlink.com 1.10,2013-08-23 14:53:00,
2013-08-23 11:08:00,75.1,57.0,29.95,NNW,335,6.0,6.0,53,0.01,,,0.01,weatherlink.com 1.10,2013-08-23 15:08:00,
2013-08-23 11:23:00,75.9,59.0,29.96,North,355,2.0,5.0,57,0.01,,,0.01,weatherlink.com 1.10,2013-08-23 15:23:00,
2013-08-23 11:38:00,76.4,56.0,29.95,NW,318,3.0,8.0,49,0.01,,,0.01,weatherlink.com 1.10,2013-08-23 15:38:00,
2013-08-23 11:53:00,76.9,60.0,29.95,NNW,345,0.0,7.0,56,0.01,,,0.01,weatherlink.com 1.10,2013-08-23 15:53:00,
2013-08-23 12:08:00,77.4,57.0,29.95,NNW,334,1.0,8.0,49,0.00,,,0.01,weatherlink.com 1.10,2013-08-23 16:08:00,
2013-08-23 12:23:00,78.3,60.0,29.95,NNW,334,0.0,12.0,54,0.00,,,0.01,weatherlink.com 1.10,2013-08-23 16:23:00,
2013-08-23 12:38:00,78.9,57.0,29.95,WNW,301,1.0,6.0,48,0.00,,,0.01,weatherlink.com 1.10,2013-08-23 16:38:00,
2013-08-23 12:53:00,78.5,58.0,29.95,NW,312,2.0,5.0,49,0.00,,,0.01,weatherlink.com 1.10,2013-08-23 16:53:00,
2013-08-23 13:08:00,78.4,58.0,29.95,SW,222,0.0,5.0,49,0.00,,,0.01,weatherlink.com 1.10,2013-08-23 17:08:00,
2013-08-23 13:23:00,79.2,59.0,29.95,NNW,343,4.0,7.0,50,0.00,,,0.01,weatherlink.com 1.10,2013-08-23 17:23:00,
2013-08-23 13:38:00,79.2,58.0,29.96,WNW,290,0.0,7.0,49,0.00,,,0.01,weatherlink.com 1.10,2013-08-23 17:38:00,
2013-08-23 13:53:00,78.8,58.0,29.96,SSW,207,0.0,3.0,49,0.00,,,0.01,weatherlink.com 1.10,2013-08-23 17:53:00,
2013-08-23 14:08:00,79.3,59.0,29.96,East,96,0.0,6.0,50,0.00,,,0.01,weatherlink.com 1.10,2013-08-23 18:08:00,
2013-08-23 14:23:00,79.0,58.0,29.96,NNW,329,0.0,2.0,49,0.00,,,0.01,weatherlink.com 1.10,2013-08-23 18:23:00,
2013-08-23 14:38:00,77.9,61.0,29.96,SE,142,0.0,1.0,57,0.00,,,0.01,weatherlink.com 1.10,2013-08-23 18:38:00,
2013-08-23 14:53:00,77.6,59.0,29.96,NW,320,0.0,3.0,53,0.00,,,0.01,weatherlink.com 1.10,2013-08-23 18:53:00,
2013-08-23 15:08:00,77.8,57.0,29.96,North,354,0.0,3.0,49,0.00,,,0.01,weatherlink.com 1.10,2013-08-23 19:08:00,
2013-08-23 15:23:00,78.9,60.0,29.97,SE,137,1.0,4.0,52,0.00,,,0.01,weatherlink.com 1.10,2013-08-23 19:23:00,
2013-08-23 15:38:00,79.5,55.0,29.97,NNW,328,1.0,6.0,43,0.00,,,0.01,weatherlink.com 1.10,2013-08-23 19:38:00,
2013-08-23 15:53:00,79.1,56.0,29.97,NW,314,2.0,4.0,45,0.00,,,0.01,weatherlink.com 1.10,2013-08-23 19:53:00,
2013-08-23 16:08:00,78.5,55.0,29.97,NNW,330,0.0,3.0,44,0.00,,,0.01,weatherlink.com 1.10,2013-08-23 20:08:00,
2013-08-23 16:23:00,78.4,53.0,29.98,NNW,335,0.0,4.0,42,0.00,,,0.01,weatherlink.com 1.10,2013-08-23 20:23:00,
2013-08-23 16:39:00,76.9,54.0,29.98,NNW,330,0.0,1.0,46,0.00,,,0.01,weatherlink.com 1.10,2013-08-23 20:39:00,
2013-08-23 16:54:00,75.3,53.0,29.98,North,350,0.0,6.0,46,0.00,,,0.01,weatherlink.com 1.10,2013-08-23 20:54:00,
2013-08-23 17:09:00,75.0,52.0,29.99,NW,316,3.0,3.0,44,0.00,,,0.01,weatherlink.com 1.10,2013-08-23 21:09:00,
2013-08-23 17:24:00,74.3,51.0,29.99,NNW,333,2.0,3.0,44,0.00,,,0.01,weatherlink.com 1.10,2013-08-23 21:24:00,
2013-08-23 17:39:00,73.9,52.0,30.00,NW,321,0.0,3.0,46,0.00,,,0.01,weatherlink.com 1.10,2013-08-23 21:39:00,
2013-08-23 17:54:00,73.1,52.0,30.00,NNW,347,0.0,2.0,47,0.00,,,0.01,weatherlink.com 1.10,2013-08-23 21:54:00,
2013-08-23 18:09:00,72.7,53.0,30.00,North,350,0.0,0.0,50,0.00,,,0.01,weatherlink.com 1.10,2013-08-23 22:09:00,
2013-08-23 18:24:00,71.9,54.0,30.00,NNE,27,0.0,0.0,54,0.00,,,0.01,weatherlink.com 1.10,2013-08-23 22:24:00,
2013-08-23 18:39:00,71.1,53.0,30.01,NNW,330,0.0,3.0,54,0.00,,,0.01,weatherlink.com 1.10,2013-08-23 22:39:00,
2013-08-23 18:54:00,69.9,57.0,30.02,NNW,332,0.0,1.0,63,0.00,,,0.01,weatherlink.com 1.10,2013-08-23 22:54:00,
2013-08-23 19:09:00,68.8,55.0,30.02,NNW,332,0.0,1.0,62,0.00,,,0.01,weatherlink.com 1.10,2013-08-23 23:09:00,
2013-08-23 19:24:00,67.7,55.0,30.03,NNW,332,0.0,0.0,63,0.00,,,0.01,weatherlink.com 1.10,2013-08-23 23:24:00,
2013-08-23 19:39:00,66.4,53.0,30.04,NNW,332,0.0,0.0,63,0.00,,,0.01,weatherlink.com 1.10,2013-08-23 23:39:00,
2013-08-23 19:54:00,65.3,53.0,30.04,NNW,332,0.0,0.0,64,0.00,,,0.01,weatherlink.com 1.10,2013-08-23 23:54:00,
2013-08-23 20:10:00,64.8,54.0,30.05,NNW,331,0.0,0.0,67,0.00,,,0.01,weatherlink.com 1.10,2013-08-24 00:10:00,
2013-08-23 20:24:00,64.3,53.0,30.05,NNW,332,0.0,0.0,67,0.00,,,0.01,weatherlink.com 1.10,2013-08-24 00:24:00,
2013-08-23 20:39:00,63.9,53.0,30.06,NNW,332,0.0,1.0,68,0.00,,,0.01,weatherlink.com 1.10,2013-08-24 00:39:00,
2013-08-23 20:54:00,63.7,52.0,30.07,NW,326,0.0,1.0,67,0.00,,,0.01,weatherlink.com 1.10,2013-08-24 00:54:00,
2013-08-23 21:09:00,63.4,53.0,30.08,NNW,329,0.0,0.0,68,0.00,,,0.01,weatherlink.com 1.10,2013-08-24 01:09:00,
2013-08-23 21:24:00,62.9,52.0,30.08,NNW,328,0.0,0.0,68,0.00,,,0.01,weatherlink.com 1.10,2013-08-24 01:24:00,
2013-08-23 21:39:00,62.7,52.0,30.09,NNW,332,0.0,3.0,68,0.00,,,0.01,weatherlink.com 1.10,2013-08-24 01:39:00,
2013-08-23 21:54:00,62.6,52.0,30.09,NNW,332,0.0,2.0,68,0.00,,,0.01,weatherlink.com 1.10,2013-08-24 01:54:00,
2013-08-23 22:09:00,62.8,51.0,30.10,NNE,18,0.0,2.0,65,0.00,,,0.01,weatherlink.com 1.10,2013-08-24 02:09:00,
2013-08-23 22:24:00,62.4,51.0,30.10,NW,311,0.0,3.0,67,0.00,,,0.01,weatherlink.com 1.10,2013-08-24 02:24:00,
2013-08-23 22:39:00,61.8,51.0,30.11,NNW,338,0.0,3.0,67,0.00,,,0.01,weatherlink.com 1.10,2013-08-24 02:39:00,
2013-08-23 22:54:00,61.2,51.0,30.11,SSE,152,0.0,0.0,70,0.00,,,0.01,weatherlink.com 1.10,2013-08-24 02:54:00,
2013-08-23 23:09:00,60.5,51.0,30.11,South,170,0.0,1.0,70,0.00,,,0.01,weatherlink.com 1.10,2013-08-24 03:09:00,
2013-08-23 23:24:00,59.9,50.0,30.12,SSW,211,0.0,0.0,71,0.00,,,0.01,weatherlink.com 1.10,2013-08-24 03:24:00,
2013-08-23 23:39:00,59.5,51.0,30.13,SSW,211,0.0,0.0,73,0.00,,,0.01,weatherlink.com 1.10,2013-08-24 03:39:00,
2013-08-23 23:55:00,58.9,51.0,30.13,SW,217,0.0,0.0,74,0.00,,,0.01,weatherlink.com 1.10,2013-08-24 03:55:00,